sensor_id;sensor_type;location;lat;lon;timestamp;pressure;altitude;pressure_sealevel;temperature;humidity
35694;BME280;21812;55.536;37.664;2023-03-04T00:01:14;98134.28;;;-1.21;72.43
35694;BME280;21812;55.536;37.664;2023-03-04T00:03:40;98135.44;;;-1.24;72.03
35694;BME280;21812;55.536;37.664;2023-03-04T00:06:06;98128.16;;;-1.30;72.61
35694;BME280;21812;55.536;37.664;2023-03-04T00:08:32;98127.56;;;-1.24;72.91
35694;BME280;21812;55.536;37.664;2023-03-04T00:10:58;98119.50;;;-1.04;72.94
35694;BME280;21812;55.536;37.664;2023-03-04T00:13:24;98116.59;;;-0.93;72.33
35694;BME280;21812;55.536;37.664;2023-03-04T00:15:49;98122.94;;;-0.69;71.99
35694;BME280;21812;55.536;37.664;2023-03-04T00:18:15;98117.44;;;-0.50;70.98
35694;BME280;21812;55.536;37.664;2023-03-04T00:20:41;98116.31;;;-0.39;70.51
35694;BME280;21812;55.536;37.664;2023-03-04T00:23:06;98122.59;;;-0.24;70.27
35694;BME280;21812;55.536;37.664;2023-03-04T00:25:32;98107.66;;;-0.23;68.55
35694;BME280;21812;55.536;37.664;2023-03-04T00:27:58;98112.59;;;-0.20;68.38
35694;BME280;21812;55.536;37.664;2023-03-04T00:30:24;98097.53;;;-0.10;68.61
35694;BME280;21812;55.536;37.664;2023-03-04T00:32:50;98102.28;;;-0.13;67.73
35694;BME280;21812;55.536;37.664;2023-03-04T00:35:15;98090.09;;;-0.31;68.22
35694;BME280;21812;55.536;37.664;2023-03-04T00:37:41;98093.16;;;-0.52;68.72
35694;BME280;21812;55.536;37.664;2023-03-04T00:40:08;98100.19;;;-0.61;69.57
35694;BME280;21812;55.536;37.664;2023-03-04T00:42:34;98087.84;;;-0.76;69.81
35694;BME280;21812;55.536;37.664;2023-03-04T00:45:00;98094.81;;;-0.93;70.71
35694;BME280;21812;55.536;37.664;2023-03-04T00:47:25;98087.13;;;-0.95;71.02
35694;BME280;21812;55.536;37.664;2023-03-04T00:49:52;98086.72;;;-1.08;71.08
35694;BME280;21812;55.536;37.664;2023-03-04T00:52:17;98086.94;;;-1.28;71.65
35694;BME280;21812;55.536;37.664;2023-03-04T00:54:44;98092.06;;;-1.44;72.33
35694;BME280;21812;55.536;37.664;2023-03-04T00:57:10;98090.53;;;-1.55;72.63
35694;BME280;21812;55.536;37.664;2023-03-04T00:59:35;98093.13;;;-1.55;73.47
35694;BME280;21812;55.536;37.664;2023-03-04T01:02:01;98094.47;;;-1.51;73.26
35694;BME280;21812;55.536;37.664;2023-03-04T01:04:28;98086.34;;;-1.66;73.36
35694;BME280;21812;55.536;37.664;2023-03-04T01:06:54;98091.53;;;-1.74;73.42
35694;BME280;21812;55.536;37.664;2023-03-04T01:09:20;98094.38;;;-1.85;73.97
35694;BME280;21812;55.536;37.664;2023-03-04T01:11:45;98080.94;;;-1.90;74.06
35694;BME280;21812;55.536;37.664;2023-03-04T01:14:11;98083.38;;;-1.89;74.36
35694;BME280;21812;55.536;37.664;2023-03-04T01:16:36;98083.19;;;-1.95;74.57
35694;BME280;21812;55.536;37.664;2023-03-04T01:19:02;98077.94;;;-1.95;75.00
35694;BME280;21812;55.536;37.664;2023-03-04T01:21:28;98078.75;;;-1.95;75.03
35694;BME280;21812;55.536;37.664;2023-03-04T01:23:54;98077.94;;;-1.95;75.31
35694;BME280;21812;55.536;37.664;2023-03-04T01:26:20;98082.41;;;-2.06;75.12
35694;BME280;21812;55.536;37.664;2023-03-04T01:28:46;98081.06;;;-2.10;75.77
35694;BME280;21812;55.536;37.664;2023-03-04T01:31:11;98081.31;;;-2.03;75.64
35694;BME280;21812;55.536;37.664;2023-03-04T01:33:37;98072.47;;;-2.02;75.95
35694;BME280;21812;55.536;37.664;2023-03-04T01:36:03;98066.38;;;-2.11;76.07
35694;BME280;21812;55.536;37.664;2023-03-04T01:38:28;98075.84;;;-2.10;76.23
35694;BME280;21812;55.536;37.664;2023-03-04T01:40:54;98072.56;;;-2.12;76.64
35694;BME280;21812;55.536;37.664;2023-03-04T01:43:23;98036.91;;;-2.31;76.98
35694;BME280;21812;55.536;37.664;2023-03-04T01:45:50;98060.63;;;-2.14;76.83
35694;BME280;21812;55.536;37.664;2023-03-04T01:48:20;98026.69;;;-2.24;76.76
35694;BME280;21812;55.536;37.664;2023-03-04T01:50:46;98062.53;;;-1.99;76.67
35694;BME280;21812;55.536;37.664;2023-03-04T01:53:24;98021.75;;;-2.27;76.58
35694;BME280;21812;55.536;37.664;2023-03-04T01:55:56;98036.16;;;-2.23;77.05
35694;BME280;21812;55.536;37.664;2023-03-04T01:58:24;98060.53;;;-2.05;77.30
35694;BME280;21812;55.536;37.664;2023-03-04T02:00:52;98047.38;;;-1.95;77.17
35694;BME280;21812;55.536;37.664;2023-03-04T02:03:18;98037.72;;;-1.94;77.42
35694;BME280;21812;55.536;37.664;2023-03-04T02:05:47;98039.38;;;-1.93;77.19
35694;BME280;21812;55.536;37.664;2023-03-04T02:08:14;98042.28;;;-1.97;76.97
35694;BME280;21812;55.536;37.664;2023-03-04T02:10:41;98031.81;;;-1.79;78.29
35694;BME280;21812;55.536;37.664;2023-03-04T02:13:27;98031.44;;;-1.58;77.01
35694;BME280;21812;55.536;37.664;2023-03-04T02:15:54;98025.31;;;-1.40;76.30
35694;BME280;21812;55.536;37.664;2023-03-04T02:18:23;98024.00;;;-1.44;75.68
35694;BME280;21812;55.536;37.664;2023-03-04T02:21:25;98022.56;;;-1.39;76.07
35694;BME280;21812;55.536;37.664;2023-03-04T02:24:26;98018.53;;;-1.25;76.46
35694;BME280;21812;55.536;37.664;2023-03-04T02:26:55;98010.13;;;-1.02;75.71
35694;BME280;21812;55.536;37.664;2023-03-04T02:29:21;98012.75;;;-0.94;75.21
35694;BME280;21812;55.536;37.664;2023-03-04T02:31:51;98012.78;;;-0.86;74.15
35694;BME280;21812;55.536;37.664;2023-03-04T02:34:32;97954.75;;;-1.07;74.73
35694;BME280;21812;55.536;37.664;2023-03-04T02:36:58;98008.03;;;-0.90;74.13
35694;BME280;21812;55.536;37.664;2023-03-04T02:39:29;97999.31;;;-0.99;74.39
35694;BME280;21812;55.536;37.664;2023-03-04T02:41:56;97985.25;;;-0.90;74.15
35694;BME280;21812;55.536;37.664;2023-03-04T02:44:30;97955.31;;;-0.79;74.71
35694;BME280;21812;55.536;37.664;2023-03-04T02:46:57;97974.53;;;-0.37;72.89
35694;BME280;21812;55.536;37.664;2023-03-04T02:49:25;97927.66;;;-0.49;72.82
35694;BME280;21812;55.536;37.664;2023-03-04T02:52:07;97968.78;;;0.08;72.33
35694;BME280;21812;55.536;37.664;2023-03-04T02:54:33;97970.28;;;-0.06;71.25
35694;BME280;21812;55.536;37.664;2023-03-04T02:57:03;97960.22;;;0.31;72.08
35694;BME280;21812;55.536;37.664;2023-03-04T02:59:32;97955.00;;;0.70;72.37
35694;BME280;21812;55.536;37.664;2023-03-04T03:01:58;97954.97;;;0.78;70.18
35694;BME280;21812;55.536;37.664;2023-03-04T03:04:24;97956.00;;;0.69;68.83
35694;BME280;21812;55.536;37.664;2023-03-04T03:06:52;97952.16;;;0.41;68.57
35694;BME280;21812;55.536;37.664;2023-03-04T03:09:18;97941.56;;;0.65;73.29
35694;BME280;21812;55.536;37.664;2023-03-04T03:11:44;97931.88;;;0.66;68.96
35694;BME280;21812;55.536;37.664;2023-03-04T03:14:10;97926.19;;;0.46;68.29
35694;BME280;21812;55.536;37.664;2023-03-04T03:16:36;97931.03;;;0.26;68.74
35694;BME280;21812;55.536;37.664;2023-03-04T03:19:03;97927.59;;;0.09;70.64
35694;BME280;21812;55.536;37.664;2023-03-04T03:21:32;97925.94;;;0.24;70.40
35694;BME280;21812;55.536;37.664;2023-03-04T03:23:58;97931.38;;;0.14;69.93
35694;BME280;21812;55.536;37.664;2023-03-04T03:26:23;97926.63;;;0.02;70.19
35694;BME280;21812;55.536;37.664;2023-03-04T03:28:49;97922.38;;;-0.08;70.56
35694;BME280;21812;55.536;37.664;2023-03-04T03:31:17;97923.81;;;0.19;71.04
35694;BME280;21812;55.536;37.664;2023-03-04T03:33:45;97908.28;;;-0.07;70.78
35694;BME280;21812;55.536;37.664;2023-03-04T03:36:11;97911.66;;;0.18;72.20
35694;BME280;21812;55.536;37.664;2023-03-04T03:38:37;97914.47;;;0.25;70.78
35694;BME280;21812;55.536;37.664;2023-03-04T03:41:03;97910.06;;;0.01;70.24
35694;BME280;21812;55.536;37.664;2023-03-04T03:43:28;97910.75;;;-0.22;71.27
35694;BME280;21812;55.536;37.664;2023-03-04T03:45:54;97912.25;;;-0.44;71.42
35694;BME280;21812;55.536;37.664;2023-03-04T03:48:20;97921.06;;;-0.61;72.30
35694;BME280;21812;55.536;37.664;2023-03-04T03:50:45;97906.00;;;-0.75;72.22
35694;BME280;21812;55.536;37.664;2023-03-04T03:53:11;97908.25;;;-1.05;72.94
35694;BME280;21812;55.536;37.664;2023-03-04T03:55:37;97892.00;;;-1.25;73.95
35694;BME280;21812;55.536;37.664;2023-03-04T03:58:04;97903.59;;;-1.28;74.52
35694;BME280;21812;55.536;37.664;2023-03-04T04:00:30;97892.16;;;-1.27;74.73
35694;BME280;21812;55.536;37.664;2023-03-04T04:02:57;97884.59;;;-1.30;74.79
35694;BME280;21812;55.536;37.664;2023-03-04T04:05:24;97878.41;;;-1.12;75.44
35694;BME280;21812;55.536;37.664;2023-03-04T04:07:49;97875.50;;;-1.09;74.46
35694;BME280;21812;55.536;37.664;2023-03-04T04:10:15;97872.53;;;-1.14;74.66
35694;BME280;21812;55.536;37.664;2023-03-04T04:12:41;97869.78;;;-0.96;75.51
35694;BME280;21812;55.536;37.664;2023-03-04T04:15:08;97858.84;;;-0.75;74.46
35694;BME280;21812;55.536;37.664;2023-03-04T04:17:34;97860.13;;;-0.71;73.17
35694;BME280;21812;55.536;37.664;2023-03-04T04:20:00;97859.66;;;-0.83;72.99
35694;BME280;21812;55.536;37.664;2023-03-04T04:22:26;97868.28;;;-0.99;73.06
35694;BME280;21812;55.536;37.664;2023-03-04T04:24:51;97871.56;;;-1.22;73.73
35694;BME280;21812;55.536;37.664;2023-03-04T04:27:17;97859.06;;;-1.28;75.64
35694;BME280;21812;55.536;37.664;2023-03-04T04:29:42;97858.09;;;-1.27;75.12
35694;BME280;21812;55.536;37.664;2023-03-04T04:32:08;97848.75;;;-1.38;75.02
35694;BME280;21812;55.536;37.664;2023-03-04T04:34:34;97858.41;;;-1.30;75.35
35694;BME280;21812;55.536;37.664;2023-03-04T04:37:00;97855.53;;;-1.02;75.14
35694;BME280;21812;55.536;37.664;2023-03-04T04:39:25;97864.06;;;-0.75;76.91
35694;BME280;21812;55.536;37.664;2023-03-04T04:41:51;97852.94;;;-0.77;74.90
35694;BME280;21812;55.536;37.664;2023-03-04T04:44:16;97854.88;;;-0.96;73.94
35694;BME280;21812;55.536;37.664;2023-03-04T04:46:42;97856.00;;;-1.07;74.49
35694;BME280;21812;55.536;37.664;2023-03-04T04:49:08;97844.09;;;-0.60;78.75
35694;BME280;21812;55.536;37.664;2023-03-04T04:51:35;97843.00;;;-0.02;75.73
35694;BME280;21812;55.536;37.664;2023-03-04T04:54:02;97849.19;;;0.06;74.98
35694;BME280;21812;55.536;37.664;2023-03-04T04:56:27;97842.16;;;0.77;72.11
35694;BME280;21812;55.536;37.664;2023-03-04T04:58:56;97808.19;;;0.75;68.95
35694;BME280;21812;55.536;37.664;2023-03-04T05:01:23;97834.63;;;0.43;69.87
35694;BME280;21812;55.536;37.664;2023-03-04T05:03:49;97843.00;;;0.46;70.36
35694;BME280;21812;55.536;37.664;2023-03-04T05:06:18;97800.31;;;0.44;70.32
35694;BME280;21812;55.536;37.664;2023-03-04T05:08:45;97830.72;;;0.93;68.95
35694;BME280;21812;55.536;37.664;2023-03-04T05:11:11;97825.03;;;1.12;72.12
35694;BME280;21812;55.536;37.664;2023-03-04T05:13:37;97830.03;;;1.22;67.48
35694;BME280;21812;55.536;37.664;2023-03-04T05:16:03;97834.84;;;0.95;66.66
35694;BME280;21812;55.536;37.664;2023-03-04T05:18:31;97834.53;;;1.13;67.86
35694;BME280;21812;55.536;37.664;2023-03-04T05:20:59;97797.84;;;0.97;68.90
35694;BME280;21812;55.536;37.664;2023-03-04T05:23:28;97836.31;;;1.36;67.21
35694;BME280;21812;55.536;37.664;2023-03-04T05:25:54;97828.47;;;1.51;66.90
35694;BME280;21812;55.536;37.664;2023-03-04T05:28:20;97820.41;;;1.52;65.25
35694;BME280;21812;55.536;37.664;2023-03-04T05:30:45;97829.16;;;1.30;65.89
35694;BME280;21812;55.536;37.664;2023-03-04T05:33:13;97838.78;;;1.38;69.12
35694;BME280;21812;55.536;37.664;2023-03-04T05:35:40;97822.44;;;1.42;66.29
35694;BME280;21812;55.536;37.664;2023-03-04T05:38:08;97785.00;;;1.40;67.19
35694;BME280;21812;55.536;37.664;2023-03-04T05:40:34;97824.41;;;2.23;65.79
35694;BME280;21812;55.536;37.664;2023-03-04T05:43:00;97814.38;;;2.11;62.80
35694;BME280;21812;55.536;37.664;2023-03-04T05:45:26;97797.38;;;1.99;64.56
35694;BME280;21812;55.536;37.664;2023-03-04T05:47:53;97800.63;;;2.16;66.72
35694;BME280;21812;55.536;37.664;2023-03-04T05:50:19;97803.25;;;2.31;62.77
35694;BME280;21812;55.536;37.664;2023-03-04T05:52:45;97804.75;;;2.55;64.37
35694;BME280;21812;55.536;37.664;2023-03-04T05:55:11;97804.50;;;2.50;61.72
35694;BME280;21812;55.536;37.664;2023-03-04T05:57:37;97799.09;;;2.58;63.38
35694;BME280;21812;55.536;37.664;2023-03-04T06:00:04;97791.84;;;3.25;65.14
35694;BME280;21812;55.536;37.664;2023-03-04T06:02:38;97794.19;;;3.13;59.71
35694;BME280;21812;55.536;37.664;2023-03-04T06:05:04;97790.97;;;2.96;60.70
35694;BME280;21812;55.536;37.664;2023-03-04T06:07:30;97796.25;;;2.96;61.27
35694;BME280;21812;55.536;37.664;2023-03-04T06:09:56;97789.09;;;3.11;60.37
35694;BME280;21812;55.536;37.664;2023-03-04T06:12:22;97782.59;;;3.14;63.65
35694;BME280;21812;55.536;37.664;2023-03-04T06:14:47;97783.84;;;2.90;61.38
35694;BME280;21812;55.536;37.664;2023-03-04T06:17:13;97784.19;;;3.08;65.80
35694;BME280;21812;55.536;37.664;2023-03-04T06:19:38;97784.19;;;3.08;66.82
35694;BME280;21812;55.536;37.664;2023-03-04T06:22:07;97778.81;;;3.45;65.47
35694;BME280;21812;55.536;37.664;2023-03-04T06:24:33;97782.34;;;3.30;61.59
35694;BME280;21812;55.536;37.664;2023-03-04T06:26:59;97786.16;;;3.00;60.55
35694;BME280;21812;55.536;37.664;2023-03-04T06:29:24;97781.25;;;2.75;68.37
35694;BME280;21812;55.536;37.664;2023-03-04T06:31:50;97776.63;;;3.27;75.11
35694;BME280;21812;55.536;37.664;2023-03-04T06:34:16;97760.06;;;4.03;67.60
35694;BME280;21812;55.536;37.664;2023-03-04T06:36:41;97762.63;;;4.38;63.99
35694;BME280;21812;55.536;37.664;2023-03-04T06:39:07;97757.72;;;5.36;72.49
35694;BME280;21812;55.536;37.664;2023-03-04T06:41:33;97758.75;;;5.35;58.31
35694;BME280;21812;55.536;37.664;2023-03-04T06:43:59;97756.06;;;4.82;55.88
35694;BME280;21812;55.536;37.664;2023-03-04T06:46:24;97748.28;;;4.60;60.17
35694;BME280;21812;55.536;37.664;2023-03-04T06:48:50;97761.06;;;4.50;57.26
35694;BME280;21812;55.536;37.664;2023-03-04T06:51:16;97748.81;;;4.29;58.49
35694;BME280;21812;55.536;37.664;2023-03-04T06:53:42;97746.50;;;4.94;68.92
35694;BME280;21812;55.536;37.664;2023-03-04T06:56:09;97752.19;;;5.44;70.98
35694;BME280;21812;55.536;37.664;2023-03-04T06:58:37;97737.97;;;5.32;57.10
35694;BME280;21812;55.536;37.664;2023-03-04T07:01:17;97735.94;;;5.01;58.68
35694;BME280;21812;55.536;37.664;2023-03-04T07:03:44;97733.91;;;5.16;63.91
35694;BME280;21812;55.536;37.664;2023-03-04T07:06:13;97728.66;;;6.53;67.93
35694;BME280;21812;55.536;37.664;2023-03-04T07:08:39;97710.72;;;7.74;60.76
35694;BME280;21812;55.536;37.664;2023-03-04T07:11:05;97703.53;;;8.49;57.06
35694;BME280;21812;55.536;37.664;2023-03-04T07:13:31;97694.28;;;8.51;59.44
35694;BME280;21812;55.536;37.664;2023-03-04T07:15:59;97690.59;;;8.34;48.57
35694;BME280;21812;55.536;37.664;2023-03-04T07:18:24;97690.50;;;7.92;57.33
35694;BME280;21812;55.536;37.664;2023-03-04T07:20:53;97694.25;;;7.03;49.37
35694;BME280;21812;55.536;37.664;2023-03-04T07:23:19;97695.88;;;6.02;52.76
35694;BME280;21812;55.536;37.664;2023-03-04T07:25:45;97691.38;;;6.48;60.56
35694;BME280;21812;55.536;37.664;2023-03-04T07:28:10;97690.50;;;6.54;51.71
35694;BME280;21812;55.536;37.664;2023-03-04T07:30:36;97686.72;;;5.98;54.35
35694;BME280;21812;55.536;37.664;2023-03-04T07:33:02;97684.78;;;5.54;61.96
35694;BME280;21812;55.536;37.664;2023-03-04T07:35:27;97690.28;;;5.59;55.16
35694;BME280;21812;55.536;37.664;2023-03-04T07:37:53;97681.75;;;5.37;56.29
35694;BME280;21812;55.536;37.664;2023-03-04T07:40:19;97674.06;;;5.22;54.24
35694;BME280;21812;55.536;37.664;2023-03-04T07:42:52;97674.06;;;4.55;55.83
35694;BME280;21812;55.536;37.664;2023-03-04T07:45:18;97671.03;;;3.90;58.38
35694;BME280;21812;55.536;37.664;2023-03-04T07:47:44;97670.47;;;3.60;57.60
35694;BME280;21812;55.536;37.664;2023-03-04T07:50:10;97669.88;;;4.06;60.33
35694;BME280;21812;55.536;37.664;2023-03-04T07:52:37;97669.19;;;5.05;57.54
35694;BME280;21812;55.536;37.664;2023-03-04T07:55:03;97667.06;;;5.61;66.60
35694;BME280;21812;55.536;37.664;2023-03-04T07:57:29;97652.41;;;6.49;54.41
35694;BME280;21812;55.536;37.664;2023-03-04T07:59:55;97646.69;;;5.61;52.59
35694;BME280;21812;55.536;37.664;2023-03-04T08:02:20;97659.41;;;4.66;55.74
35694;BME280;21812;55.536;37.664;2023-03-04T08:04:46;97652.84;;;4.22;57.16
35694;BME280;21812;55.536;37.664;2023-03-04T08:07:11;97658.06;;;3.88;58.31
35694;BME280;21812;55.536;37.664;2023-03-04T08:09:37;97652.31;;;3.78;59.27
35694;BME280;21812;55.536;37.664;2023-03-04T08:12:02;97648.75;;;3.51;59.89
35694;BME280;21812;55.536;37.664;2023-03-04T08:14:30;97652.13;;;3.38;60.19
35694;BME280;21812;55.536;37.664;2023-03-04T08:16:56;97652.66;;;3.27;60.43
35694;BME280;21812;55.536;37.664;2023-03-04T08:19:22;97642.59;;;3.37;60.26
35694;BME280;21812;55.536;37.664;2023-03-04T08:21:47;97639.72;;;3.39;59.50
35694;BME280;21812;55.536;37.664;2023-03-04T08:24:13;97633.84;;;3.37;59.31
35694;BME280;21812;55.536;37.664;2023-03-04T08:26:43;97601.59;;;3.06;59.46
35694;BME280;21812;55.536;37.664;2023-03-04T08:29:13;97609.03;;;2.89;59.30
35694;BME280;21812;55.536;37.664;2023-03-04T08:31:39;97628.56;;;2.73;60.61
35694;BME280;21812;55.536;37.664;2023-03-04T08:34:06;97631.34;;;2.65;61.40
35694;BME280;21812;55.536;37.664;2023-03-04T08:36:33;97625.31;;;2.71;61.28
35694;BME280;21812;55.536;37.664;2023-03-04T08:38:58;97619.06;;;2.79;61.37
35694;BME280;21812;55.536;37.664;2023-03-04T08:41:24;97633.91;;;2.80;60.36
35694;BME280;21812;55.536;37.664;2023-03-04T08:43:52;97618.13;;;2.87;59.80
35694;BME280;21812;55.536;37.664;2023-03-04T08:46:18;97621.28;;;3.04;59.38
35694;BME280;21812;55.536;37.664;2023-03-04T08:48:43;97613.78;;;3.07;59.42
35694;BME280;21812;55.536;37.664;2023-03-04T08:51:11;97607.56;;;2.87;59.37
35694;BME280;21812;55.536;37.664;2023-03-04T08:53:37;97608.72;;;2.78;59.57
35694;BME280;21812;55.536;37.664;2023-03-04T08:56:04;97615.31;;;2.95;59.46
35694;BME280;21812;55.536;37.664;2023-03-04T08:58:30;97592.28;;;3.04;59.60
35694;BME280;21812;55.536;37.664;2023-03-04T09:00:58;97581.25;;;3.28;58.98
35694;BME280;21812;55.536;37.664;2023-03-04T09:03:23;97585.16;;;3.39;58.30
35694;BME280;21812;55.536;37.664;2023-03-04T09:05:49;97579.13;;;3.59;57.91
35694;BME280;21812;55.536;37.664;2023-03-04T09:08:16;97583.63;;;3.65;56.63
35694;BME280;21812;55.536;37.664;2023-03-04T09:10:42;97576.31;;;3.67;56.68
35694;BME280;21812;55.536;37.664;2023-03-04T09:13:08;97580.56;;;3.55;57.24
35694;BME280;21812;55.536;37.664;2023-03-04T09:15:47;97567.81;;;3.71;57.72
35694;BME280;21812;55.536;37.664;2023-03-04T09:18:15;97533.09;;;3.68;57.23
35694;BME280;21812;55.536;37.664;2023-03-04T09:20:41;97562.53;;;3.78;57.70
35694;BME280;21812;55.536;37.664;2023-03-04T09:23:07;97544.59;;;3.47;58.28
35694;BME280;21812;55.536;37.664;2023-03-04T09:25:34;97549.44;;;3.43;59.31
35694;BME280;21812;55.536;37.664;2023-03-04T09:28:00;97546.16;;;3.28;60.37
35694;BME280;21812;55.536;37.664;2023-03-04T09:30:26;97547.38;;;3.32;60.37
35694;BME280;21812;55.536;37.664;2023-03-04T09:32:51;97541.47;;;3.30;60.98
35694;BME280;21812;55.536;37.664;2023-03-04T09:35:17;97539.78;;;3.16;60.63
35694;BME280;21812;55.536;37.664;2023-03-04T09:37:43;97540.94;;;3.00;61.38
35694;BME280;21812;55.536;37.664;2023-03-04T09:40:17;97530.19;;;3.01;62.00
35694;BME280;21812;55.536;37.664;2023-03-04T09:42:47;97527.38;;;3.03;61.73
35694;BME280;21812;55.536;37.664;2023-03-04T09:45:20;97518.25;;;3.05;61.68
35694;BME280;21812;55.536;37.664;2023-03-04T09:47:48;97504.69;;;3.15;61.11
35694;BME280;21812;55.536;37.664;2023-03-04T09:50:16;97500.03;;;3.10;61.04
35694;BME280;21812;55.536;37.664;2023-03-04T09:53:13;97498.44;;;3.23;61.29
35694;BME280;21812;55.536;37.664;2023-03-04T09:55:44;97490.09;;;3.19;60.57
35694;BME280;21812;55.536;37.664;2023-03-04T10:00:54;97483.06;;;3.46;58.90
35694;BME280;21812;55.536;37.664;2023-03-04T10:03:28;97471.72;;;3.39;58.44
35694;BME280;21812;55.536;37.664;2023-03-04T10:10:55;97465.66;;;3.65;58.10
35694;BME280;21812;55.536;37.664;2023-03-04T10:13:28;97469.47;;;3.36;58.27
35694;BME280;21812;55.536;37.664;2023-03-04T10:15:58;97462.34;;;3.30;57.98
35694;BME280;21812;55.536;37.664;2023-03-04T10:18:49;97451.19;;;3.28;58.13
35694;BME280;21812;55.536;37.664;2023-03-04T10:23:49;97428.44;;;2.65;60.13
35694;BME280;21812;55.536;37.664;2023-03-04T10:26:19;97405.88;;;2.56;61.13
35694;BME280;21812;55.536;37.664;2023-03-04T10:28:46;97433.53;;;2.73;61.67
35694;BME280;21812;55.536;37.664;2023-03-04T10:33:41;97434.19;;;2.89;61.53
35694;BME280;21812;55.536;37.664;2023-03-04T10:36:40;97432.84;;;3.00;61.53
35694;BME280;21812;55.536;37.664;2023-03-04T10:39:08;97389.28;;;2.62;62.38
35694;BME280;21812;55.536;37.664;2023-03-04T10:41:34;97417.53;;;2.75;63.77
35694;BME280;21812;55.536;37.664;2023-03-04T10:44:14;97346.94;;;2.57;63.71
35694;BME280;21812;55.536;37.664;2023-03-04T10:46:43;97399.13;;;2.95;64.21
35694;BME280;21812;55.536;37.664;2023-03-04T10:49:09;97404.00;;;2.91;64.74
35694;BME280;21812;55.536;37.664;2023-03-04T10:51:49;97401.00;;;3.08;64.39
35694;BME280;21812;55.536;37.664;2023-03-04T10:56:57;97386.41;;;3.05;63.07
35694;BME280;21812;55.536;37.664;2023-03-04T11:02:34;97379.63;;;2.83;64.84
35694;BME280;21812;55.536;37.664;2023-03-04T11:07:47;97380.53;;;2.48;65.24
35694;BME280;21812;55.536;37.664;2023-03-04T11:13:24;97331.50;;;2.06;66.41
35694;BME280;21812;55.536;37.664;2023-03-04T11:15:58;97364.22;;;2.31;66.26
35694;BME280;21812;55.536;37.664;2023-03-04T11:18:43;97361.44;;;2.05;66.66
35694;BME280;21812;55.536;37.664;2023-03-04T11:21:16;97356.56;;;2.02;67.77
35694;BME280;21812;55.536;37.664;2023-03-04T11:23:51;97355.56;;;2.03;67.55
35694;BME280;21812;55.536;37.664;2023-03-04T11:26:20;97322.16;;;1.75;68.19
35694;BME280;21812;55.536;37.664;2023-03-04T11:28:51;97349.75;;;2.14;68.72
35694;BME280;21812;55.536;37.664;2023-03-04T11:31:39;97341.94;;;2.27;68.48
35694;BME280;21812;55.536;37.664;2023-03-04T11:36:53;97338.88;;;2.24;68.54
35694;BME280;21812;55.536;37.664;2023-03-04T11:44:37;97327.28;;;2.18;68.49
35694;BME280;21812;55.536;37.664;2023-03-04T11:52:25;97309.72;;;1.90;70.77
35694;BME280;21812;55.536;37.664;2023-03-04T11:55:27;97309.50;;;1.85;71.65
35694;BME280;21812;55.536;37.664;2023-03-04T11:58:23;97307.84;;;1.78;72.23
35694;BME280;21812;55.536;37.664;2023-03-04T12:12:28;97273.00;;;1.75;73.06
35694;BME280;21812;55.536;37.664;2023-03-04T12:26:09;97262.78;;;1.59;74.14
35694;BME280;21812;55.536;37.664;2023-03-04T12:39:56;97237.34;;;1.66;74.65
35694;BME280;21812;55.536;37.664;2023-03-04T12:53:33;97221.53;;;1.66;74.24
35694;BME280;21812;55.536;37.664;2023-03-04T12:56:04;97174.00;;;1.33;74.47
35694;BME280;21812;55.536;37.664;2023-03-04T12:58:32;97212.13;;;1.50;74.69
35694;BME280;21812;55.536;37.664;2023-03-04T13:04:00;97201.31;;;1.67;74.87
35694;BME280;21812;55.536;37.664;2023-03-04T13:12:02;97154.59;;;1.34;75.07
35694;BME280;21812;55.536;37.664;2023-03-04T13:14:30;97182.94;;;1.39;74.95
35694;BME280;21812;55.536;37.664;2023-03-04T13:17:01;97180.28;;;1.32;75.08
35694;BME280;21812;55.536;37.664;2023-03-04T13:19:55;97177.03;;;1.30;75.66
35694;BME280;21812;55.536;37.664;2023-03-04T13:25:30;97168.66;;;1.20;75.51
35694;BME280;21812;55.536;37.664;2023-03-04T13:38:34;97146.75;;;1.41;75.62
35694;BME280;21812;55.536;37.664;2023-03-04T13:46:56;97138.66;;;1.42;75.22
35694;BME280;21812;55.536;37.664;2023-03-04T13:49:22;97137.66;;;1.43;75.03
35694;BME280;21812;55.536;37.664;2023-03-04T13:51:49;97127.56;;;1.47;75.25
35694;BME280;21812;55.536;37.664;2023-03-04T13:59:31;97089.88;;;1.33;75.19
35694;BME280;21812;55.536;37.664;2023-03-04T14:04:35;97088.19;;;1.19;75.58
35694;BME280;21812;55.536;37.664;2023-03-04T14:07:15;97076.41;;;1.08;75.94
35694;BME280;21812;55.536;37.664;2023-03-04T14:09:53;97071.94;;;1.02;76.50
35694;BME280;21812;55.536;37.664;2023-03-04T14:12:19;97094.03;;;1.14;76.75
35694;BME280;21812;55.536;37.664;2023-03-04T14:14:49;97084.53;;;1.20;76.75
35694;BME280;21812;55.536;37.664;2023-03-04T14:17:46;97093.94;;;1.35;77.19
35694;BME280;21812;55.536;37.664;2023-03-04T14:20:28;97084.16;;;1.23;76.98
35694;BME280;21812;55.536;37.664;2023-03-04T14:22:55;97078.03;;;1.09;77.30
35694;BME280;21812;55.536;37.664;2023-03-04T14:25:24;97082.47;;;1.08;77.51
35694;BME280;21812;55.536;37.664;2023-03-04T14:28:14;97063.03;;;1.03;77.51
35694;BME280;21812;55.536;37.664;2023-03-04T14:30:41;97075.84;;;1.12;77.52
35694;BME280;21812;55.536;37.664;2023-03-04T14:33:13;97078.00;;;1.02;77.68
35694;BME280;21812;55.536;37.664;2023-03-04T14:35:46;97079.84;;;1.08;78.21
35694;BME280;21812;55.536;37.664;2023-03-04T14:38:23;97075.66;;;1.21;77.77
35694;BME280;21812;55.536;37.664;2023-03-04T14:40:54;97069.19;;;1.16;77.00
35694;BME280;21812;55.536;37.664;2023-03-04T14:43:22;97062.28;;;1.15;77.37
35694;BME280;21812;55.536;37.664;2023-03-04T14:45:55;97027.38;;;0.87;77.48
35694;BME280;21812;55.536;37.664;2023-03-04T14:48:27;97059.41;;;1.04;77.81
35694;BME280;21812;55.536;37.664;2023-03-04T14:50:54;97057.97;;;1.01;77.92
35694;BME280;21812;55.536;37.664;2023-03-04T14:53:23;97052.50;;;0.96;78.20
35694;BME280;21812;55.536;37.664;2023-03-04T14:56:01;97050.50;;;1.05;78.57
35694;BME280;21812;55.536;37.664;2023-03-04T14:58:38;97013.25;;;0.88;78.62
35694;BME280;21812;55.536;37.664;2023-03-04T15:06:21;97046.44;;;1.02;78.69
35694;BME280;21812;55.536;37.664;2023-03-04T15:08:57;97040.19;;;1.03;78.53